Time;durP1;ratioP1;P1;durP2;ratioP2;P2;SDS_P1;SDS_P2;PMS_P1;PMS_P2;Temp;Humidity;BMP_temperature;BMP_pressure;BME280_temperature;BME280_humidity;BME280_pressure;Samples;Min_cycle;Max_cycle;Signal;HPM_P1;HPM_P2
2023/12/15 00:01:50;;;;;;;197.53;52.50;;;;;;;;;;4959393;28;20429;-43
2023/12/15 00:04:17;;;;;;;206.13;51.10;;;;;;;;;;4964273;28;20420;-42
2023/12/15 00:06:43;;;;;;;209.73;53.05;;;;;;;;;;4976415;28;20924;-42
2023/12/15 00:09:09;;;;;;;208.18;52.13;;;;;;;;;;4983994;28;20197;-43
2023/12/15 00:11:35;;;;;;;208.17;52.10;;;;;;;;;;4978675;28;20201;-43
2023/12/15 00:14:01;;;;;;;208.88;52.35;;;;;;;;;;4982634;28;20421;-43
2023/12/15 00:16:27;;;;;;;207.67;52.00;;;;;;;;;;4982706;28;20301;-43
2023/12/15 00:18:53;;;;;;;206.88;51.45;;;;;;;;;;4981175;28;20463;-43
2023/12/15 00:21:20;;;;;;;207.52;52.53;;;;;;;;;;4982439;28;20794;-42
2023/12/15 00:23:46;;;;;;;207.45;52.30;;;;;;;;;;4974776;28;20232;-43
2023/12/15 00:26:12;;;;;;;204.67;50.80;;;;;;;;;;4987535;28;20205;-44
2023/12/15 00:28:38;;;;;;;208.07;52.83;;;;;;;;;;4983916;28;20419;-42
2023/12/15 00:31:04;;;;;;;206.27;51.73;;;;;;;;;;4979554;28;20853;-42
2023/12/15 00:33:30;;;;;;;204.65;50.70;;;;;;;;;;4981107;28;20417;-43
2023/12/15 00:35:56;;;;;;;205.40;51.43;;;;;;;;;;4980940;28;20267;-43
2023/12/15 00:38:22;;;;;;;209.67;56.07;;;;;;;;;;4980375;28;20467;-43
2023/12/15 00:40:48;;;;;;;204.60;51.07;;;;;;;;;;4980157;28;20430;-43
2023/12/15 00:43:14;;;;;;;206.27;51.53;;;;;;;;;;4986029;28;20405;-43
2023/12/15 00:45:42;;;;;;;208.98;52.47;;;;;;;;;;4982632;28;20407;-44
2023/12/15 00:48:07;;;;;;;206.20;51.08;;;;;;;;;;4977887;28;20205;-43
2023/12/15 00:50:33;;;;;;;208.57;52.57;;;;;;;;;;4978431;28;20244;-43
2023/12/15 00:52:59;;;;;;;181.43;45.43;;;;;;;;;;4981916;28;20413;-43
2023/12/15 00:55:26;;;;;;;203.73;50.90;;;;;;;;;;4984282;28;20409;-43
2023/12/15 00:57:52;;;;;;;209.27;52.28;;;;;;;;;;4981132;28;20500;-43
2023/12/15 01:00:18;;;;;;;134.90;43.77;;;;;;;;;;4977200;28;20237;-43
2023/12/15 01:02:44;;;;;;;32.58;25.88;;;;;;;;;;4981436;28;20424;-43
2023/12/15 01:05:10;;;;;;;34.07;28.97;;;;;;;;;;4976247;28;20186;-43
2023/12/15 01:07:36;;;;;;;28.48;23.85;;;;;;;;;;4984165;28;20543;-42
2023/12/15 01:10:02;;;;;;;19.55;18.10;;;;;;;;;;4980780;28;20281;-43
2023/12/15 01:12:28;;;;;;;37.05;31.95;;;;;;;;;;4982726;28;20588;-43
2023/12/15 01:14:54;;;;;;;18.80;16.87;;;;;;;;;;4981102;28;20256;-43
2023/12/15 01:17:20;;;;;;;22.23;20.50;;;;;;;;;;4982143;28;20416;-42
2023/12/15 01:19:46;;;;;;;10.60;9.50;;;;;;;;;;4979782;28;20471;-43
2023/12/15 01:22:12;;;;;;;24.60;22.52;;;;;;;;;;4982536;28;20421;-42
2023/12/15 01:24:38;;;;;;;9.70;8.77;;;;;;;;;;4987927;28;20181;-43
2023/12/15 01:27:04;;;;;;;16.30;14.90;;;;;;;;;;4983222;28;20417;-43
2023/12/15 01:29:30;;;;;;;65.90;28.67;;;;;;;;;;4984321;28;20458;-43
2023/12/15 01:31:56;;;;;;;40.20;29.50;;;;;;;;;;4984688;28;20180;-43
2023/12/15 01:34:22;;;;;;;40.92;30.77;;;;;;;;;;4984410;28;20913;-43
2023/12/15 01:36:48;;;;;;;72.77;40.63;;;;;;;;;;4984376;28;20186;-43
2023/12/15 01:39:14;;;;;;;30.23;26.47;;;;;;;;;;4988997;28;20524;-43
2023/12/15 01:41:40;;;;;;;63.33;38.90;;;;;;;;;;4986296;28;20414;-42
2023/12/15 01:44:06;;;;;;;70.07;40.50;;;;;;;;;;4981427;28;20909;-42
2023/12/15 01:46:32;;;;;;;77.40;40.80;;;;;;;;;;4982479;28;20901;-43
2023/12/15 01:48:58;;;;;;;52.77;37.27;;;;;;;;;;4984978;28;20901;-42
2023/12/15 01:51:24;;;;;;;66.75;39.50;;;;;;;;;;4987580;28;20424;-43
2023/12/15 01:53:50;;;;;;;81.03;41.07;;;;;;;;;;4984865;28;20177;-43
2023/12/15 01:56:16;;;;;;;80.67;41.63;;;;;;;;;;4987526;28;20420;-43
2023/12/15 01:58:42;;;;;;;77.10;40.03;;;;;;;;;;4984179;28;20539;-43
2023/12/15 02:01:08;;;;;;;82.85;41.65;;;;;;;;;;4979057;28;20387;-43
2023/12/15 02:03:35;;;;;;;91.47;42.20;;;;;;;;;;4986627;28;20543;-43
2023/12/15 02:06:01;;;;;;;69.75;40.85;;;;;;;;;;4986557;28;20223;-44
2023/12/15 02:08:26;;;;;;;75.07;41.63;;;;;;;;;;4976547;28;20198;-43
2023/12/15 02:10:52;;;;;;;44.53;35.33;;;;;;;;;;4962896;28;20435;-43
2023/12/15 02:13:18;;;;;;;30.07;26.97;;;;;;;;;;4956918;28;20278;-43
2023/12/15 02:15:44;;;;;;;61.27;39.70;;;;;;;;;;4961062;28;20418;-43
2023/12/15 02:18:11;;;;;;;72.50;40.67;;;;;;;;;;4974722;28;20541;-43
2023/12/15 02:20:37;;;;;;;66.78;39.80;;;;;;;;;;4956278;28;20423;-43
2023/12/15 02:23:03;;;;;;;24.00;22.10;;;;;;;;;;4972591;28;20611;-43
2023/12/15 02:25:29;;;;;;;28.37;25.57;;;;;;;;;;4974851;28;20771;-43
2023/12/15 02:27:56;;;;;;;31.33;26.90;;;;;;;;;;4975249;28;20413;-44
2023/12/15 02:30:22;;;;;;;39.70;35.35;;;;;;;;;;4970548;28;20487;-43
2023/12/15 02:32:48;;;;;;;53.47;37.33;;;;;;;;;;4956004;28;20279;-43
2023/12/15 02:35:14;;;;;;;44.20;35.55;;;;;;;;;;4975503;28;20407;-43
2023/12/15 02:37:40;;;;;;;23.70;21.77;;;;;;;;;;4959336;28;20322;-42
2023/12/15 02:40:06;;;;;;;29.48;26.60;;;;;;;;;;4967515;28;20737;-43
2023/12/15 02:42:32;;;;;;;64.28;38.63;;;;;;;;;;4967170;28;20174;-43
2023/12/15 02:45:00;;;;;;;32.42;28.23;;;;;;;;;;4960180;28;20235;-43
2023/12/15 02:47:26;;;;;;;32.35;27.13;;;;;;;;;;4974843;28;20578;-44
2023/12/15 02:49:54;;;;;;;64.68;39.25;;;;;;;;;;4955613;28;20201;-43
2023/12/15 02:52:20;;;;;;;59.83;38.75;;;;;;;;;;4971627;28;20565;-43
2023/12/15 02:54:46;;;;;;;24.17;21.77;;;;;;;;;;4963658;28;20707;-43
2023/12/15 02:57:12;;;;;;;23.05;21.23;;;;;;;;;;4974480;28;20187;-43
2023/12/15 02:59:38;;;;;;;22.53;20.87;;;;;;;;;;4970494;28;20265;-43
2023/12/15 03:02:05;;;;;;;20.17;17.97;;;;;;;;;;4955667;28;20430;-43
2023/12/15 03:04:30;;;;;;;24.75;22.67;;;;;;;;;;4974985;28;20460;-43
2023/12/15 03:06:56;;;;;;;11.70;10.53;;;;;;;;;;4959339;28;20198;-43
2023/12/15 03:09:22;;;;;;;20.20;18.38;;;;;;;;;;4966580;28;20417;-42
2023/12/15 03:11:49;;;;;;;23.55;21.73;;;;;;;;;;4967180;28;20225;-44
2023/12/15 03:14:15;;;;;;;20.52;18.77;;;;;;;;;;4974220;28;20193;-43
2023/12/15 03:16:41;;;;;;;33.00;25.63;;;;;;;;;;4974824;28;20175;-43
2023/12/15 03:19:07;;;;;;;175.03;45.20;;;;;;;;;;4955371;28;20492;-43
2023/12/15 03:21:32;;;;;;;83.63;23.17;;;;;;;;;;4970029;28;20514;-43
2023/12/15 03:23:58;;;;;;;20.10;10.03;;;;;;;;;;4963559;28;20417;-43
2023/12/15 03:26:24;;;;;;;220.50;63.17;;;;;;;;;;4959801;28;20410;-43
2023/12/15 03:28:50;;;;;;;208.37;52.50;;;;;;;;;;4981796;28;20505;-43
2023/12/15 03:31:16;;;;;;;208.70;53.17;;;;;;;;;;4985073;28;20499;-43
2023/12/15 03:33:42;;;;;;;206.87;51.87;;;;;;;;;;4983977;28;20302;-43
2023/12/15 03:36:08;;;;;;;209.93;52.33;;;;;;;;;;4983400;28;20468;-43
2023/12/15 03:38:34;;;;;;;216.10;55.97;;;;;;;;;;4981465;28;20463;-43
2023/12/15 03:41:00;;;;;;;211.48;52.60;;;;;;;;;;4988234;28;20567;-43
2023/12/15 03:43:26;;;;;;;210.17;53.10;;;;;;;;;;4983626;28;20178;-43
2023/12/15 03:45:52;;;;;;;197.57;49.63;;;;;;;;;;4979313;28;20404;-44
2023/12/15 03:48:18;;;;;;;211.53;54.80;;;;;;;;;;4982975;28;20823;-44
2023/12/15 03:50:44;;;;;;;212.70;54.13;;;;;;;;;;4982050;28;20839;-43
2023/12/15 03:53:10;;;;;;;213.32;54.38;;;;;;;;;;4984281;28;20420;-43
2023/12/15 03:55:36;;;;;;;209.50;52.17;;;;;;;;;;4985448;28;20183;-43
2023/12/15 03:58:02;;;;;;;209.07;52.97;;;;;;;;;;4986145;28;20481;-43
2023/12/15 04:00:28;;;;;;;209.70;53.60;;;;;;;;;;4981266;28;20434;-43
2023/12/15 04:02:54;;;;;;;209.23;52.17;;;;;;;;;;4978517;28;20442;-43
2023/12/15 04:05:22;;;;;;;211.30;54.20;;;;;;;;;;4985030;28;20289;-43
2023/12/15 04:07:48;;;;;;;210.80;53.83;;;;;;;;;;4983810;28;20650;-43
2023/12/15 04:10:14;;;;;;;209.73;53.83;;;;;;;;;;4984134;28;20273;-43
2023/12/15 04:12:39;;;;;;;208.60;52.40;;;;;;;;;;4983123;28;20434;-43
2023/12/15 04:15:08;;;;;;;207.37;52.60;;;;;;;;;;4984553;28;20413;-44
2023/12/15 04:17:34;;;;;;;210.02;53.30;;;;;;;;;;4980449;28;20414;-44
2023/12/15 04:20:00;;;;;;;208.50;52.37;;;;;;;;;;4983262;28;20217;-44
2023/12/15 04:22:26;;;;;;;205.97;51.93;;;;;;;;;;4978417;28;20485;-43
2023/12/15 04:24:52;;;;;;;208.27;52.77;;;;;;;;;;4981298;28;20502;-43
2023/12/15 04:27:18;;;;;;;210.75;54.35;;;;;;;;;;4984204;28;20438;-43
2023/12/15 04:29:44;;;;;;;211.27;53.10;;;;;;;;;;4981059;28;20286;-43
2023/12/15 04:32:12;;;;;;;213.30;56.17;;;;;;;;;;4982746;28;20201;-43
2023/12/15 04:34:38;;;;;;;210.75;53.75;;;;;;;;;;4981250;28;20178;-43
2023/12/15 04:37:04;;;;;;;210.37;52.93;;;;;;;;;;4987549;28;20548;-43
2023/12/15 04:39:30;;;;;;;211.00;53.80;;;;;;;;;;4982493;28;20452;-43
2023/12/15 04:41:56;;;;;;;208.45;52.58;;;;;;;;;;4979793;28;20551;-43
2023/12/15 04:44:22;;;;;;;206.50;51.67;;;;;;;;;;4981972;28;20167;-43
2023/12/15 04:46:49;;;;;;;208.37;53.23;;;;;;;;;;4981037;28;20399;-43
2023/12/15 04:49:15;;;;;;;207.60;53.00;;;;;;;;;;4983657;28;20911;-43
2023/12/15 04:51:41;;;;;;;206.00;53.95;;;;;;;;;;4984270;28;20707;-43
2023/12/15 04:54:07;;;;;;;208.30;54.80;;;;;;;;;;4985678;28;20267;-44
2023/12/15 04:56:34;;;;;;;206.77;54.47;;;;;;;;;;4981529;28;20472;-43
2023/12/15 04:59:00;;;;;;;198.07;52.10;;;;;;;;;;4977558;28;20207;-44
2023/12/15 05:01:26;;;;;;;207.87;53.57;;;;;;;;;;4979543;28;20451;-44
2023/12/15 05:03:52;;;;;;;203.60;52.50;;;;;;;;;;4980918;28;20442;-44
2023/12/15 05:06:19;;;;;;;204.27;53.37;;;;;;;;;;4984146;28;20770;-44
2023/12/15 05:08:45;;;;;;;200.20;51.53;;;;;;;;;;4981505;28;20419;-42
2023/12/15 05:11:11;;;;;;;201.57;51.97;;;;;;;;;;4977930;28;20297;-43
2023/12/15 05:13:37;;;;;;;200.77;54.67;;;;;;;;;;4973806;28;20227;-44
2023/12/15 05:16:03;;;;;;;202.57;56.35;;;;;;;;;;4978291;28;20984;-44
2023/12/15 05:18:29;;;;;;;208.88;58.72;;;;;;;;;;4976923;28;20596;-44
2023/12/15 05:20:55;;;;;;;204.07;54.77;;;;;;;;;;4978413;28;20717;-44
2023/12/15 05:23:21;;;;;;;202.87;53.50;;;;;;;;;;4983946;28;20768;-43
2023/12/15 05:25:47;;;;;;;194.47;52.50;;;;;;;;;;4983782;28;20463;-43
2023/12/15 05:28:13;;;;;;;201.95;53.47;;;;;;;;;;4981008;28;20434;-43
2023/12/15 05:30:39;;;;;;;202.90;53.50;;;;;;;;;;4979891;28;20209;-43
2023/12/15 05:33:06;;;;;;;202.32;52.97;;;;;;;;;;4982611;28;20467;-44
2023/12/15 05:35:32;;;;;;;204.85;53.55;;;;;;;;;;4984140;28;20177;-43
2023/12/15 05:37:58;;;;;;;203.20;54.77;;;;;;;;;;4980247;28;20688;-43
2023/12/15 05:40:24;;;;;;;201.57;53.40;;;;;;;;;;4982358;28;20958;-43
2023/12/15 05:42:50;;;;;;;202.95;52.90;;;;;;;;;;4980583;28;20166;-43
2023/12/15 05:45:15;;;;;;;207.33;55.23;;;;;;;;;;4981885;28;20178;-43
2023/12/15 05:47:41;;;;;;;204.17;53.33;;;;;;;;;;4980497;28;20428;-44
2023/12/15 05:50:08;;;;;;;201.45;53.95;;;;;;;;;;4986449;28;20787;-42
2023/12/15 05:52:34;;;;;;;200.50;52.53;;;;;;;;;;4982580;28;20172;-43
2023/12/15 05:55:00;;;;;;;189.10;53.80;;;;;;;;;;4978901;28;20187;-42
2023/12/15 05:57:26;;;;;;;165.68;49.58;;;;;;;;;;4980813;28;20466;-44
2023/12/15 05:59:52;;;;;;;186.23;53.50;;;;;;;;;;4980011;28;20204;-43
2023/12/15 06:02:18;;;;;;;117.30;34.28;;;;;;;;;;4983672;28;20456;-43
2023/12/15 06:04:44;;;;;;;13.17;12.23;;;;;;;;;;4983231;28;20188;-43
2023/12/15 06:07:09;;;;;;;28.05;26.45;;;;;;;;;;4984815;28;20921;-43
2023/12/15 06:09:38;;;;;;;37.77;35.47;;;;;;;;;;4983935;28;20212;-43
2023/12/15 06:12:05;;;;;;;41.33;38.15;;;;;;;;;;4980644;28;20456;-43
2023/12/15 06:14:31;;;;;;;41.22;37.75;;;;;;;;;;4981866;28;20190;-43
2023/12/15 06:16:57;;;;;;;42.60;39.05;;;;;;;;;;4984319;28;20578;-43
2023/12/15 06:19:23;;;;;;;176.20;46.17;;;;;;;;;;4986616;28;20194;-43
2023/12/15 06:21:49;;;;;;;191.43;49.00;;;;;;;;;;4984375;28;20413;-43
2023/12/15 06:24:15;;;;;;;206.93;53.40;;;;;;;;;;4986753;28;20176;-43
2023/12/15 06:26:41;;;;;;;207.87;53.87;;;;;;;;;;4983654;28;20184;-43
2023/12/15 06:29:07;;;;;;;205.77;52.43;;;;;;;;;;4978588;28;20503;-44
2023/12/15 06:31:33;;;;;;;207.43;54.63;;;;;;;;;;4986227;28;20438;-42
2023/12/15 06:33:59;;;;;;;207.50;55.37;;;;;;;;;;4983423;28;20445;-43
2023/12/15 06:36:26;;;;;;;209.03;54.03;;;;;;;;;;4985351;28;20407;-43
2023/12/15 06:38:52;;;;;;;205.90;53.28;;;;;;;;;;4983369;28;20461;-44
2023/12/15 06:41:18;;;;;;;207.60;55.70;;;;;;;;;;4982036;28;20261;-42
2023/12/15 06:43:45;;;;;;;210.48;55.05;;;;;;;;;;4982010;28;20165;-43
2023/12/15 06:46:11;;;;;;;209.90;55.60;;;;;;;;;;4983157;28;20629;-44
2023/12/15 06:48:37;;;;;;;196.45;51.60;;;;;;;;;;4985377;28;20261;-43
2023/12/15 06:51:03;;;;;;;190.05;51.22;;;;;;;;;;4981067;28;20207;-44
2023/12/15 06:53:29;;;;;;;187.25;50.78;;;;;;;;;;4983130;28;20220;-43
2023/12/15 06:55:55;;;;;;;165.05;43.05;;;;;;;;;;4989345;28;20206;-44
2023/12/15 06:58:21;;;;;;;167.67;46.83;;;;;;;;;;4982674;28;20744;-43
2023/12/15 07:00:47;;;;;;;197.97;52.13;;;;;;;;;;4982880;28;20428;-43
2023/12/15 07:03:13;;;;;;;200.68;52.67;;;;;;;;;;4987640;28;20450;-43
2023/12/15 07:05:39;;;;;;;204.03;54.27;;;;;;;;;;4984570;28;20175;-43
2023/12/15 07:08:05;;;;;;;200.77;50.97;;;;;;;;;;4979747;28;20427;-44
2023/12/15 07:10:32;;;;;;;200.93;52.37;;;;;;;;;;4980867;28;20445;-43
2023/12/15 07:12:58;;;;;;;204.50;53.80;;;;;;;;;;4983452;28;20443;-43
2023/12/15 07:15:27;;;;;;;205.47;53.80;;;;;;;;;;4986568;28;20722;-43
2023/12/15 07:17:53;;;;;;;207.15;54.70;;;;;;;;;;4982585;28;20430;-43
2023/12/15 07:20:20;;;;;;;205.07;53.70;;;;;;;;;;4985161;28;20250;-44
2023/12/15 07:22:46;;;;;;;205.50;53.88;;;;;;;;;;4984213;28;20283;-43
2023/12/15 07:25:11;;;;;;;204.33;53.70;;;;;;;;;;4974975;28;20707;-43
2023/12/15 07:27:37;;;;;;;198.67;52.67;;;;;;;;;;4968482;28;20983;-43
2023/12/15 07:30:04;;;;;;;205.87;54.57;;;;;;;;;;4957048;28;21193;-43
2023/12/15 07:32:29;;;;;;;207.85;56.63;;;;;;;;;;4974379;28;20411;-43
2023/12/15 07:34:57;;;;;;;200.07;52.77;;;;;;;;;;4957060;28;20192;-43
2023/12/15 07:37:23;;;;;;;200.55;53.47;;;;;;;;;;4955333;28;20415;-43
2023/12/15 07:39:49;;;;;;;203.77;54.10;;;;;;;;;;4954931;28;20288;-43
2023/12/15 07:42:15;;;;;;;199.43;53.87;;;;;;;;;;4960378;28;20470;-43
2023/12/15 07:44:40;;;;;;;197.83;52.93;;;;;;;;;;4972586;28;20408;-43
2023/12/15 07:47:06;;;;;;;196.80;52.43;;;;;;;;;;4954398;28;20415;-43
2023/12/15 07:49:34;;;;;;;203.20;54.97;;;;;;;;;;4971150;28;20518;-42
2023/12/15 07:52:00;;;;;;;201.48;53.35;;;;;;;;;;4960801;28;20419;-43
2023/12/15 07:54:29;;;;;;;203.38;54.28;;;;;;;;;;4963876;28;20604;-43
2023/12/15 07:56:55;;;;;;;201.95;53.90;;;;;;;;;;4973184;28;20176;-43
2023/12/15 07:59:21;;;;;;;204.23;54.50;;;;;;;;;;4972224;28;20209;-43
2023/12/15 08:01:50;;;;;;;199.27;52.17;;;;;;;;;;4954366;28;20218;-42
2023/12/15 08:04:17;;;;;;;196.40;53.50;;;;;;;;;;4971976;28;20409;-42
2023/12/15 08:06:43;;;;;;;187.00;52.50;;;;;;;;;;4960065;28;20189;-42
2023/12/15 08:09:09;;;;;;;66.87;40.00;;;;;;;;;;4963736;28;20545;-43
2023/12/15 08:11:34;;;;;;;132.88;39.00;;;;;;;;;;4968069;28;20449;-43
2023/12/15 08:14:03;;;;;;;104.83;41.47;;;;;;;;;;4955848;28;20193;-44
2023/12/15 08:16:30;;;;;;;79.78;32.17;;;;;;;;;;4973688;28;20486;-43
2023/12/15 08:18:56;;;;;;;120.70;39.33;;;;;;;;;;4955630;28;20200;-42
2023/12/15 08:21:22;;;;;;;114.45;37.22;;;;;;;;;;4967538;28;20202;-43
2023/12/15 08:23:48;;;;;;;116.97;42.07;;;;;;;;;;4964020;28;20261;-42
2023/12/15 08:26:25;;;;;;;162.80;50.40;;;;;;;;;;4959606;28;20412;-43
2023/12/15 08:28:53;;;;;;;170.57;49.50;;;;;;;;;;4970095;28;20428;-43
2023/12/15 08:31:19;;;;;;;19.48;18.45;;;;;;;;;;4953707;28;20198;-43
2023/12/15 08:33:45;;;;;;;15.00;14.10;;;;;;;;;;4972623;28;20260;-43
2023/12/15 08:36:11;;;;;;;15.37;14.47;;;;;;;;;;4958591;28;20227;-43
2023/12/15 08:38:37;;;;;;;20.83;19.60;;;;;;;;;;4964238;28;20456;-43
2023/12/15 08:41:06;;;;;;;21.02;19.85;;;;;;;;;;4982298;28;20439;-43
2023/12/15 08:43:32;;;;;;;20.42;19.27;;;;;;;;;;4980043;28;20181;-43
2023/12/15 08:45:57;;;;;;;15.50;14.60;;;;;;;;;;4981754;28;20173;-42
2023/12/15 08:48:23;;;;;;;21.60;20.40;;;;;;;;;;4983872;28;20438;-43
2023/12/15 08:50:49;;;;;;;22.20;21.00;;;;;;;;;;4982351;28;20445;-43
2023/12/15 08:53:18;;;;;;;21.00;19.87;;;;;;;;;;4985320;28;20426;-43
2023/12/15 08:55:44;;;;;;;23.42;22.23;;;;;;;;;;4982307;28;20419;-43
2023/12/15 08:58:09;;;;;;;21.03;19.93;;;;;;;;;;4983565;28;20208;-42
2023/12/15 09:00:36;;;;;;;21.63;20.47;;;;;;;;;;4984191;28;20428;-42
2023/12/15 09:03:02;;;;;;;21.60;20.50;;;;;;;;;;4980635;28;20535;-43
2023/12/15 09:05:28;;;;;;;26.30;24.73;;;;;;;;;;4982288;28;20252;-43
2023/12/15 09:07:54;;;;;;;22.25;20.95;;;;;;;;;;4972099;28;20409;-42
2023/12/15 09:10:20;;;;;;;25.88;24.48;;;;;;;;;;4956093;28;20201;-43
2023/12/15 09:12:47;;;;;;;14.73;13.80;;;;;;;;;;4964498;28;20537;-43
2023/12/15 09:15:13;;;;;;;18.75;17.75;;;;;;;;;;4972474;28;20581;-43
2023/12/15 09:17:41;;;;;;;18.25;17.35;;;;;;;;;;4968958;28;20166;-43
2023/12/15 09:20:08;;;;;;;25.45;24.10;;;;;;;;;;4953249;28;20206;-43
2023/12/15 09:22:34;;;;;;;20.52;19.52;;;;;;;;;;4953618;28;20174;-43
2023/12/15 09:25:00;;;;;;;23.83;22.50;;;;;;;;;;4968845;28;20193;-43
2023/12/15 09:27:25;;;;;;;27.37;24.07;;;;;;;;;;4961231;28;20421;-42
2023/12/15 09:29:51;;;;;;;53.40;21.00;;;;;;;;;;4960534;28;20577;-43
2023/12/15 09:32:17;;;;;;;16.47;15.47;;;;;;;;;;4969091;28;20417;-43
2023/12/15 09:34:43;;;;;;;25.70;24.30;;;;;;;;;;4953782;28;20877;-42
2023/12/15 09:37:10;;;;;;;28.88;27.30;;;;;;;;;;4972331;28;20426;-43
2023/12/15 09:39:36;;;;;;;25.70;24.30;;;;;;;;;;4957133;28;20210;-43
2023/12/15 09:42:02;;;;;;;20.30;19.20;;;;;;;;;;4964369;28;20631;-42
2023/12/15 09:44:28;;;;;;;24.08;22.85;;;;;;;;;;4968498;28;20416;-43
2023/12/15 09:46:55;;;;;;;27.70;26.20;;;;;;;;;;4959997;28;20178;-44
2023/12/15 09:49:22;;;;;;;25.77;24.42;;;;;;;;;;4976107;28;20413;-43
2023/12/15 09:51:49;;;;;;;25.13;23.80;;;;;;;;;;4975539;28;20189;-43
2023/12/15 09:54:16;;;;;;;24.60;23.30;;;;;;;;;;4976023;28;20181;-43
2023/12/15 09:56:42;;;;;;;27.58;26.10;;;;;;;;;;4975686;28;20177;-43
2023/12/15 09:59:09;;;;;;;31.10;29.42;;;;;;;;;;4968594;28;20613;-43
2023/12/15 10:01:37;;;;;;;35.42;33.33;;;;;;;;;;4958292;28;20213;-44
2023/12/15 10:04:03;;;;;;;21.52;20.38;;;;;;;;;;4973375;28;20169;-43
2023/12/15 10:06:29;;;;;;;33.05;31.35;;;;;;;;;;4957218;28;20174;-42
2023/12/15 10:08:55;;;;;;;33.20;31.40;;;;;;;;;;4971035;28;20652;-43
2023/12/15 10:11:22;;;;;;;26.65;25.25;;;;;;;;;;4964466;28;20809;-43
2023/12/15 10:13:49;;;;;;;26.58;25.17;;;;;;;;;;4963591;28;20606;-44
2023/12/15 10:16:15;;;;;;;17.10;16.00;;;;;;;;;;4971746;28;20209;-43
2023/12/15 10:18:40;;;;;;;15.13;14.23;;;;;;;;;;4955530;28;20233;-43
2023/12/15 10:21:06;;;;;;;16.20;15.20;;;;;;;;;;4974664;28;20425;-43
2023/12/15 10:23:33;;;;;;;14.10;13.10;;;;;;;;;;4960930;28;20902;-43
2023/12/15 10:25:59;;;;;;;9.50;8.73;;;;;;;;;;4966665;28;20414;-43
2023/12/15 10:28:25;;;;;;;19.75;18.00;;;;;;;;;;4968520;28;20266;-43
2023/12/15 10:30:51;;;;;;;15.37;14.37;;;;;;;;;;4958788;28;20214;-43
2023/12/15 10:33:21;;;;;;;15.80;14.80;;;;;;;;;;4975525;28;20810;-43
2023/12/15 10:35:50;;;;;;;15.32;14.35;;;;;;;;;;4956535;28;20534;-42
2023/12/15 10:38:16;;;;;;;12.68;11.68;;;;;;;;;;4970786;28;20215;-43
2023/12/15 10:40:43;;;;;;;10.63;9.77;;;;;;;;;;4964156;28;20205;-43
2023/12/15 10:43:12;;;;;;;9.73;8.88;;;;;;;;;;4963087;28;20181;-43
2023/12/15 10:45:38;;;;;;;9.70;8.85;;;;;;;;;;4971688;28;20589;-43
2023/12/15 10:48:04;;;;;;;10.02;9.13;;;;;;;;;;4955936;28;20233;-43
2023/12/15 10:50:30;;;;;;;11.80;10.90;;;;;;;;;;4974434;28;20186;-44
2023/12/15 10:52:57;;;;;;;10.93;10.05;;;;;;;;;;4973208;28;20173;-43
2023/12/15 10:55:26;;;;;;;12.70;11.85;;;;;;;;;;4969058;28;20177;-43
2023/12/15 10:57:52;;;;;;;10.77;9.98;;;;;;;;;;4974400;28;20181;-44
2023/12/15 11:00:19;;;;;;;11.50;10.63;;;;;;;;;;4970853;28;20544;-43
2023/12/15 11:02:48;;;;;;;12.18;11.32;;;;;;;;;;4955735;28;20210;-43
2023/12/15 11:05:15;;;;;;;12.35;11.35;;;;;;;;;;4974840;28;20589;-43
2023/12/15 11:07:41;;;;;;;10.25;9.40;;;;;;;;;;4959033;28;20263;-43
2023/12/15 11:10:09;;;;;;;10.57;9.73;;;;;;;;;;4966774;28;20538;-42
2023/12/15 11:12:39;;;;;;;15.60;14.50;;;;;;;;;;4966745;28;20170;-43
2023/12/15 11:15:12;;;;;;;11.65;10.77;;;;;;;;;;4960084;28;20236;-43
2023/12/15 11:17:45;;;;;;;10.68;9.77;;;;;;;;;;4972991;28;20189;-43
2023/12/15 11:20:11;;;;;;;13.20;12.20;;;;;;;;;;4955038;28;20210;-43
2023/12/15 11:22:55;;;;;;;13.17;12.20;;;;;;;;;;4973161;28;20228;-43
2023/12/15 11:25:25;;;;;;;12.75;11.75;;;;;;;;;;4958200;28;20409;-43
2023/12/15 11:27:59;;;;;;;11.93;11.02;;;;;;;;;;4967845;28;20288;-43
2023/12/15 11:30:31;;;;;;;10.10;9.27;;;;;;;;;;4964187;28;20194;-43
2023/12/15 11:32:57;;;;;;;13.43;12.25;;;;;;;;;;4961706;28;20197;-43
2023/12/15 11:35:32;;;;;;;35.57;33.27;;;;;;;;;;4971657;28;20174;-43
2023/12/15 11:37:59;;;;;;;18.25;16.92;;;;;;;;;;4954913;28;20902;-43
2023/12/15 11:40:29;;;;;;;31.02;29.33;;;;;;;;;;4973820;28;20328;-43
2023/12/15 11:42:56;;;;;;;10.05;9.38;;;;;;;;;;4958219;28;20225;-43
2023/12/15 11:45:23;;;;;;;29.85;28.20;;;;;;;;;;4966781;28;20176;-43
2023/12/15 11:47:49;;;;;;;23.58;22.20;;;;;;;;;;4965754;28;20758;-43
2023/12/15 11:50:15;;;;;;;30.83;29.23;;;;;;;;;;4958755;28;20280;-43
2023/12/15 11:52:41;;;;;;;29.90;28.20;;;;;;;;;;4973364;28;20404;-44
2023/12/15 11:55:08;;;;;;;17.70;16.58;;;;;;;;;;4973854;28;20901;-44
2023/12/15 11:57:39;;;;;;;13.43;12.63;;;;;;;;;;4973482;28;20604;-43
2023/12/15 12:00:05;;;;;;;13.80;12.82;;;;;;;;;;4961002;28;20321;-43
2023/12/15 12:02:31;;;;;;;31.77;29.98;;;;;;;;;;4962975;28;20193;-43
2023/12/15 12:04:58;;;;;;;30.67;28.87;;;;;;;;;;4969299;28;20191;-43
2023/12/15 12:07:24;;;;;;;193.40;55.03;;;;;;;;;;4954313;28;20406;-43
2023/12/15 12:09:50;;;;;;;79.20;28.38;;;;;;;;;;4973637;28;20228;-43
2023/12/15 12:12:16;;;;;;;22.37;20.70;;;;;;;;;;4957755;28;20178;-43
2023/12/15 12:14:43;;;;;;;48.05;40.15;;;;;;;;;;4966397;28;20495;-43
2023/12/15 12:17:12;;;;;;;49.92;45.13;;;;;;;;;;4965411;28;20182;-43
2023/12/15 12:19:40;;;;;;;43.17;40.03;;;;;;;;;;4958383;28;20581;-43
2023/12/15 12:22:09;;;;;;;44.92;40.42;;;;;;;;;;4972416;28;20232;-44
2023/12/15 12:24:35;;;;;;;42.25;37.75;;;;;;;;;;4954366;28;20166;-43
2023/12/15 12:27:01;;;;;;;19.55;18.13;;;;;;;;;;4971299;28;20184;-43
2023/12/15 12:29:31;;;;;;;21.00;19.53;;;;;;;;;;4961266;28;20190;-43
2023/12/15 12:31:57;;;;;;;47.00;35.97;;;;;;;;;;4963204;28;20417;-43
2023/12/15 12:34:22;;;;;;;51.10;39.23;;;;;;;;;;4967900;28;20244;-44
2023/12/15 12:36:48;;;;;;;54.83;41.83;;;;;;;;;;4955232;28;20674;-43
2023/12/15 12:39:14;;;;;;;50.17;41.10;;;;;;;;;;4973034;28;20463;-43
2023/12/15 12:41:40;;;;;;;75.70;43.07;;;;;;;;;;4956654;28;20543;-43
2023/12/15 12:44:07;;;;;;;70.20;42.40;;;;;;;;;;4966696;28;20427;-43
2023/12/15 12:46:33;;;;;;;57.50;41.53;;;;;;;;;;4964502;28;20414;-43
2023/12/15 12:49:00;;;;;;;86.60;44.10;;;;;;;;;;4958503;28;20199;-43
2023/12/15 12:51:27;;;;;;;62.30;42.08;;;;;;;;;;4971951;28;20945;-43
2023/12/15 12:53:53;;;;;;;9.40;8.80;;;;;;;;;;4954197;28;20550;-44
2023/12/15 12:56:21;;;;;;;10.48;9.75;;;;;;;;;;4970323;28;20521;-43
2023/12/15 12:58:47;;;;;;;10.18;9.48;;;;;;;;;;4972171;28;20716;-43
2023/12/15 13:01:13;;;;;;;9.50;8.80;;;;;;;;;;4964251;28;20229;-43
2023/12/15 13:03:39;;;;;;;11.37;10.67;;;;;;;;;;4958404;28;20409;-43
2023/12/15 13:06:05;;;;;;;9.10;8.50;;;;;;;;;;4970886;28;20770;-43
2023/12/15 13:08:31;;;;;;;14.00;13.00;;;;;;;;;;4953400;28;20232;-43
2023/12/15 13:10:57;;;;;;;13.10;12.30;;;;;;;;;;4969739;28;20280;-43
2023/12/15 13:13:23;;;;;;;145.97;51.23;;;;;;;;;;4960580;28;20414;-44
2023/12/15 13:15:49;;;;;;;144.27;50.80;;;;;;;;;;4961925;28;20408;-43
2023/12/15 13:18:15;;;;;;;138.23;53.10;;;;;;;;;;4970930;28;21013;-43
2023/12/15 13:20:41;;;;;;;84.38;35.85;;;;;;;;;;4957564;28;20430;-43
2023/12/15 13:23:08;;;;;;;18.70;14.23;;;;;;;;;;4977222;28;20180;-43
2023/12/15 13:25:34;;;;;;;172.70;54.60;;;;;;;;;;4960707;28;20414;-43
2023/12/15 13:28:00;;;;;;;168.00;54.17;;;;;;;;;;4969239;28;20178;-43
2023/12/15 13:30:26;;;;;;;178.80;56.17;;;;;;;;;;4968369;28;20438;-42
2023/12/15 13:32:52;;;;;;;172.37;56.10;;;;;;;;;;4961647;28;20409;-43
2023/12/15 13:35:18;;;;;;;167.53;55.13;;;;;;;;;;4976308;28;20432;-43
2023/12/15 13:37:44;;;;;;;163.90;55.77;;;;;;;;;;4957174;28;20406;-44
2023/12/15 13:40:11;;;;;;;160.73;52.73;;;;;;;;;;4971840;28;20472;-43
2023/12/15 13:42:37;;;;;;;145.63;48.65;;;;;;;;;;4964745;28;20414;-43
2023/12/15 13:45:05;;;;;;;14.00;13.10;;;;;;;;;;4964340;28;20729;-43
2023/12/15 13:47:31;;;;;;;23.20;14.68;;;;;;;;;;4972310;28;20415;-44
2023/12/15 13:49:57;;;;;;;174.10;55.30;;;;;;;;;;4956537;28;20204;-43
2023/12/15 13:52:23;;;;;;;138.85;52.85;;;;;;;;;;4975990;28;20264;-42
2023/12/15 13:54:49;;;;;;;170.50;56.25;;;;;;;;;;4961942;28;20178;-43
2023/12/15 13:57:15;;;;;;;141.47;52.70;;;;;;;;;;4981376;28;20185;-43
2023/12/15 13:59:41;;;;;;;145.48;54.25;;;;;;;;;;4983180;28;20545;-43
2023/12/15 14:02:07;;;;;;;157.40;56.15;;;;;;;;;;4970178;28;20186;-43
2023/12/15 14:04:33;;;;;;;155.07;57.30;;;;;;;;;;4957573;28;20178;-43
2023/12/15 14:07:00;;;;;;;141.43;56.60;;;;;;;;;;4975871;28;20405;-43